sensor_id;sensor_type;location;lat;lon;timestamp;P1;durP1;ratioP1;P2;durP2;ratioP2
34290;SDS011;20553;47.544;7.586;2022-08-19T00:04:57;6.73;;;6.03;;
34290;SDS011;20553;47.544;7.586;2022-08-19T00:10:02;7.60;;;6.90;;
34290;SDS011;20553;47.544;7.586;2022-08-19T00:15:13;7.00;;;6.30;;
34290;SDS011;20553;47.544;7.586;2022-08-19T00:20:26;6.63;;;5.68;;
34290;SDS011;20553;47.544;7.586;2022-08-19T00:25:31;6.90;;;6.20;;
34290;SDS011;20553;47.544;7.586;2022-08-19T00:30:35;8.15;;;6.82;;
34290;SDS011;20553;47.544;7.586;2022-08-19T00:35:41;8.40;;;7.50;;
34290;SDS011;20553;47.544;7.586;2022-08-19T00:40:46;6.40;;;5.80;;
34290;SDS011;20553;47.544;7.586;2022-08-19T00:45:51;6.35;;;5.75;;
34290;SDS011;20553;47.544;7.586;2022-08-19T00:50:58;5.78;;;5.25;;
34290;SDS011;20553;47.544;7.586;2022-08-19T00:56:03;5.53;;;5.03;;
34290;SDS011;20553;47.544;7.586;2022-08-19T01:01:09;5.35;;;4.85;;
34290;SDS011;20553;47.544;7.586;2022-08-19T01:06:16;5.17;;;4.00;;
34290;SDS011;20553;47.544;7.586;2022-08-19T01:11:23;4.90;;;4.13;;
34290;SDS011;20553;47.544;7.586;2022-08-19T01:16:28;4.30;;;3.90;;
34290;SDS011;20553;47.544;7.586;2022-08-19T01:21:39;4.50;;;4.10;;
34290;SDS011;20553;47.544;7.586;2022-08-19T01:26:52;4.50;;;4.10;;
34290;SDS011;20553;47.544;7.586;2022-08-19T01:31:58;6.63;;;5.40;;
34290;SDS011;20553;47.544;7.586;2022-08-19T01:37:05;6.45;;;5.85;;
34290;SDS011;20553;47.544;7.586;2022-08-19T01:42:14;6.40;;;5.57;;
34290;SDS011;20553;47.544;7.586;2022-08-19T01:47:19;5.95;;;5.35;;
34290;SDS011;20553;47.544;7.586;2022-08-19T01:52:23;7.55;;;6.80;;
34290;SDS011;20553;47.544;7.586;2022-08-19T01:57:28;8.75;;;7.85;;
34290;SDS011;20553;47.544;7.586;2022-08-19T02:02:33;7.50;;;6.10;;
34290;SDS011;20553;47.544;7.586;2022-08-19T02:07:38;7.70;;;6.60;;
34290;SDS011;20553;47.544;7.586;2022-08-19T02:12:45;7.07;;;6.37;;
34290;SDS011;20553;47.544;7.586;2022-08-19T02:17:51;8.75;;;7.85;;
34290;SDS011;20553;47.544;7.586;2022-08-19T02:22:56;9.20;;;8.18;;
34290;SDS011;20553;47.544;7.586;2022-08-19T02:28:02;8.63;;;7.77;;
34290;SDS011;20553;47.544;7.586;2022-08-19T02:33:08;8.90;;;8.00;;
34290;SDS011;20553;47.544;7.586;2022-08-19T02:38:12;9.90;;;8.90;;
34290;SDS011;20553;47.544;7.586;2022-08-19T02:43:32;8.10;;;7.30;;
34290;SDS011;20553;47.544;7.586;2022-08-19T02:48:39;8.75;;;7.85;;
34290;SDS011;20553;47.544;7.586;2022-08-19T02:53:44;8.70;;;7.80;;
34290;SDS011;20553;47.544;7.586;2022-08-19T02:58:49;8.50;;;7.60;;
34290;SDS011;20553;47.544;7.586;2022-08-19T03:03:54;9.52;;;8.55;;
34290;SDS011;20553;47.544;7.586;2022-08-19T03:09:03;9.15;;;7.88;;
34290;SDS011;20553;47.544;7.586;2022-08-19T03:14:09;9.57;;;7.50;;
34290;SDS011;20553;47.544;7.586;2022-08-19T03:19:15;10.33;;;8.10;;
34290;SDS011;20553;47.544;7.586;2022-08-19T03:24:23;9.75;;;8.15;;
34290;SDS011;20553;47.544;7.586;2022-08-19T03:29:29;9.63;;;8.55;;
34290;SDS011;20553;47.544;7.586;2022-08-19T03:34:44;9.90;;;8.77;;
34290;SDS011;20553;47.544;7.586;2022-08-19T03:39:48;10.35;;;8.23;;
34290;SDS011;20553;47.544;7.586;2022-08-19T03:44:54;7.82;;;7.03;;
34290;SDS011;20553;47.544;7.586;2022-08-19T03:50:00;8.80;;;7.55;;
34290;SDS011;20553;47.544;7.586;2022-08-19T03:55:06;8.48;;;7.60;;
34290;SDS011;20553;47.544;7.586;2022-08-19T04:00:13;8.83;;;7.93;;
34290;SDS011;20553;47.544;7.586;2022-08-19T04:05:20;9.80;;;8.48;;
34290;SDS011;20553;47.544;7.586;2022-08-19T04:10:29;9.52;;;8.55;;
34290;SDS011;20553;47.544;7.586;2022-08-19T04:15:38;8.77;;;7.70;;
34290;SDS011;20553;47.544;7.586;2022-08-19T04:20:45;9.77;;;7.90;;
34290;SDS011;20553;47.544;7.586;2022-08-19T04:25:50;7.80;;;6.95;;
34290;SDS011;20553;47.544;7.586;2022-08-19T04:30:56;7.65;;;6.70;;
34290;SDS011;20553;47.544;7.586;2022-08-19T04:36:01;7.90;;;7.10;;
34290;SDS011;20553;47.544;7.586;2022-08-19T04:41:06;6.78;;;6.10;;
34290;SDS011;20553;47.544;7.586;2022-08-19T04:46:29;8.43;;;7.35;;
34290;SDS011;20553;47.544;7.586;2022-08-19T04:51:53;9.55;;;7.93;;
34290;SDS011;20553;47.544;7.586;2022-08-19T04:56:58;7.97;;;7.25;;
34290;SDS011;20553;47.544;7.586;2022-08-19T05:02:06;8.50;;;7.65;;
34290;SDS011;20553;47.544;7.586;2022-08-19T05:07:12;8.10;;;6.90;;
34290;SDS011;20553;47.544;7.586;2022-08-19T05:12:18;7.85;;;7.10;;
34290;SDS011;20553;47.544;7.586;2022-08-19T05:17:31;9.25;;;8.30;;
34290;SDS011;20553;47.544;7.586;2022-08-19T05:22:41;10.27;;;9.18;;
34290;SDS011;20553;47.544;7.586;2022-08-19T05:27:47;11.68;;;10.48;;
34290;SDS011;20553;47.544;7.586;2022-08-19T05:32:54;11.75;;;10.00;;
34290;SDS011;20553;47.544;7.586;2022-08-19T05:37:58;11.67;;;9.97;;
34290;SDS011;20553;47.544;7.586;2022-08-19T05:43:06;11.18;;;9.40;;
34290;SDS011;20553;47.544;7.586;2022-08-19T05:48:13;11.23;;;10.13;;
34290;SDS011;20553;47.544;7.586;2022-08-19T05:53:26;11.80;;;10.00;;
34290;SDS011;20553;47.544;7.586;2022-08-19T05:58:31;11.70;;;10.50;;
34290;SDS011;20553;47.544;7.586;2022-08-19T06:03:41;13.38;;;11.45;;
34290;SDS011;20553;47.544;7.586;2022-08-19T06:08:46;11.35;;;10.15;;
34290;SDS011;20553;47.544;7.586;2022-08-19T06:13:56;11.60;;;10.25;;
34290;SDS011;20553;47.544;7.586;2022-08-19T06:19:05;11.68;;;10.48;;
34290;SDS011;20553;47.544;7.586;2022-08-19T06:24:21;11.43;;;10.23;;
34290;SDS011;20553;47.544;7.586;2022-08-19T06:29:28;12.55;;;11.35;;
34290;SDS011;20553;47.544;7.586;2022-08-19T06:34:36;12.20;;;11.07;;
34290;SDS011;20553;47.544;7.586;2022-08-19T06:39:43;12.48;;;11.27;;
34290;SDS011;20553;47.544;7.586;2022-08-19T06:44:48;12.00;;;10.82;;
34290;SDS011;20553;47.544;7.586;2022-08-19T06:49:56;13.20;;;11.90;;
34290;SDS011;20553;47.544;7.586;2022-08-19T06:55:06;11.77;;;10.65;;
34290;SDS011;20553;47.544;7.586;2022-08-19T07:00:12;13.25;;;11.65;;
34290;SDS011;20553;47.544;7.586;2022-08-19T07:05:18;13.45;;;12.05;;
34290;SDS011;20553;47.544;7.586;2022-08-19T07:10:23;13.43;;;11.97;;
34290;SDS011;20553;47.544;7.586;2022-08-19T07:15:27;11.50;;;10.30;;
34290;SDS011;20553;47.544;7.586;2022-08-19T07:20:34;12.90;;;11.60;;
34290;SDS011;20553;47.544;7.586;2022-08-19T07:25:40;11.80;;;10.60;;
34290;SDS011;20553;47.544;7.586;2022-08-19T07:30:53;11.00;;;10.00;;
34290;SDS011;20553;47.544;7.586;2022-08-19T07:35:59;11.93;;;10.80;;
34290;SDS011;20553;47.544;7.586;2022-08-19T07:41:03;12.98;;;11.77;;
34290;SDS011;20553;47.544;7.586;2022-08-19T07:46:09;13.48;;;12.15;;
34290;SDS011;20553;47.544;7.586;2022-08-19T07:51:18;13.97;;;12.70;;
34290;SDS011;20553;47.544;7.586;2022-08-19T07:56:38;14.30;;;12.88;;
34290;SDS011;20553;47.544;7.586;2022-08-19T08:01:43;13.65;;;12.25;;
34290;SDS011;20553;47.544;7.586;2022-08-19T08:06:49;13.32;;;12.07;;
34290;SDS011;20553;47.544;7.586;2022-08-19T08:12:13;14.75;;;13.25;;
34290;SDS011;20553;47.544;7.586;2022-08-19T08:17:35;14.23;;;12.93;;
34290;SDS011;20553;47.544;7.586;2022-08-19T08:22:54;13.40;;;12.17;;
34290;SDS011;20553;47.544;7.586;2022-08-19T08:28:16;13.48;;;12.18;;
34290;SDS011;20553;47.544;7.586;2022-08-19T08:33:21;13.50;;;12.23;;
34290;SDS011;20553;47.544;7.586;2022-08-19T08:38:36;12.27;;;11.17;;
34290;SDS011;20553;47.544;7.586;2022-08-19T08:43:44;11.80;;;10.77;;
34290;SDS011;20553;47.544;7.586;2022-08-19T08:48:53;12.40;;;11.10;;
34290;SDS011;20553;47.544;7.586;2022-08-19T08:54:10;10.63;;;9.60;;
34290;SDS011;20553;47.544;7.586;2022-08-19T08:59:19;12.32;;;11.18;;
34290;SDS011;20553;47.544;7.586;2022-08-19T09:04:31;11.15;;;10.05;;
34290;SDS011;20553;47.544;7.586;2022-08-19T09:09:40;11.07;;;10.07;;
34290;SDS011;20553;47.544;7.586;2022-08-19T09:14:52;10.85;;;9.75;;
34290;SDS011;20553;47.544;7.586;2022-08-19T09:20:02;11.50;;;10.40;;
34290;SDS011;20553;47.544;7.586;2022-08-19T09:25:19;12.93;;;11.68;;
34290;SDS011;20553;47.544;7.586;2022-08-19T09:30:31;10.65;;;9.63;;
34290;SDS011;20553;47.544;7.586;2022-08-19T09:35:38;11.25;;;10.25;;
34290;SDS011;20553;47.544;7.586;2022-08-19T09:40:56;12.32;;;11.13;;
34290;SDS011;20553;47.544;7.586;2022-08-19T09:46:10;13.50;;;12.27;;
34290;SDS011;20553;47.544;7.586;2022-08-19T09:51:20;13.57;;;12.27;;
34290;SDS011;20553;47.544;7.586;2022-08-19T09:56:30;14.45;;;12.95;;
34290;SDS011;20553;47.544;7.586;2022-08-19T10:01:35;14.10;;;12.70;;
34290;SDS011;20553;47.544;7.586;2022-08-19T10:06:41;15.70;;;14.20;;
34290;SDS011;20553;47.544;7.586;2022-08-19T10:11:49;15.63;;;14.13;;
34290;SDS011;20553;47.544;7.586;2022-08-19T10:16:56;14.93;;;13.43;;
34290;SDS011;20553;47.544;7.586;2022-08-19T10:22:08;16.13;;;14.60;;
34290;SDS011;20553;47.544;7.586;2022-08-19T10:27:17;16.80;;;15.27;;
34290;SDS011;20553;47.544;7.586;2022-08-19T10:32:22;17.88;;;16.08;;
34290;SDS011;20553;47.544;7.586;2022-08-19T10:37:35;15.60;;;14.10;;
34290;SDS011;20553;47.544;7.586;2022-08-19T10:43:00;18.02;;;16.23;;
34290;SDS011;20553;47.544;7.586;2022-08-19T10:48:05;18.93;;;16.37;;
34290;SDS011;20553;47.544;7.586;2022-08-19T10:53:13;17.37;;;15.77;;
34290;SDS011;20553;47.544;7.586;2022-08-19T10:58:20;16.50;;;14.90;;
34290;SDS011;20553;47.544;7.586;2022-08-19T11:03:27;19.35;;;17.55;;
34290;SDS011;20553;47.544;7.586;2022-08-19T11:08:33;17.80;;;16.02;;
34290;SDS011;20553;47.544;7.586;2022-08-19T11:13:41;18.25;;;16.58;;
34290;SDS011;20553;47.544;7.586;2022-08-19T11:18:48;17.20;;;15.57;;
34290;SDS011;20553;47.544;7.586;2022-08-19T11:23:58;18.45;;;16.65;;
34290;SDS011;20553;47.544;7.586;2022-08-19T11:29:10;17.70;;;15.95;;
34290;SDS011;20553;47.544;7.586;2022-08-19T11:34:18;18.07;;;16.37;;
34290;SDS011;20553;47.544;7.586;2022-08-19T11:39:30;18.90;;;17.05;;
34290;SDS011;20553;47.544;7.586;2022-08-19T11:44:39;16.83;;;15.15;;
34290;SDS011;20553;47.544;7.586;2022-08-19T11:49:44;20.73;;;18.70;;
34290;SDS011;20553;47.544;7.586;2022-08-19T11:54:49;22.43;;;20.10;;
34290;SDS011;20553;47.544;7.586;2022-08-19T11:59:55;18.92;;;17.17;;
34290;SDS011;20553;47.544;7.586;2022-08-19T12:05:00;16.93;;;15.47;;
34290;SDS011;20553;47.544;7.586;2022-08-19T12:10:10;16.35;;;14.85;;
34290;SDS011;20553;47.544;7.586;2022-08-19T12:15:21;16.43;;;15.03;;
34290;SDS011;20553;47.544;7.586;2022-08-19T12:20:25;16.50;;;15.03;;
34290;SDS011;20553;47.544;7.586;2022-08-19T12:25:30;17.42;;;15.68;;
34290;SDS011;20553;47.544;7.586;2022-08-19T12:30:38;17.40;;;15.90;;
34290;SDS011;20553;47.544;7.586;2022-08-19T12:35:43;15.68;;;14.30;;
34290;SDS011;20553;47.544;7.586;2022-08-19T12:40:49;15.77;;;14.37;;
34290;SDS011;20553;47.544;7.586;2022-08-19T12:46:02;20.17;;;18.27;;
34290;SDS011;20553;47.544;7.586;2022-08-19T12:51:12;18.33;;;16.83;;
34290;SDS011;20553;47.544;7.586;2022-08-19T12:56:20;20.70;;;18.80;;
34290;SDS011;20553;47.544;7.586;2022-08-19T13:01:26;21.47;;;19.47;;
34290;SDS011;20553;47.544;7.586;2022-08-19T13:06:34;23.40;;;21.27;;
34290;SDS011;20553;47.544;7.586;2022-08-19T13:11:39;26.10;;;23.67;;
34290;SDS011;20553;47.544;7.586;2022-08-19T13:16:46;29.03;;;26.33;;
34290;SDS011;20553;47.544;7.586;2022-08-19T13:21:51;29.67;;;26.73;;
34290;SDS011;20553;47.544;7.586;2022-08-19T13:27:01;27.73;;;25.13;;
34290;SDS011;20553;47.544;7.586;2022-08-19T13:32:07;29.92;;;27.10;;
34290;SDS011;20553;47.544;7.586;2022-08-19T13:37:31;29.92;;;27.00;;
34290;SDS011;20553;47.544;7.586;2022-08-19T13:42:46;24.25;;;22.05;;
34290;SDS011;20553;47.544;7.586;2022-08-19T13:47:57;28.80;;;26.00;;
34290;SDS011;20553;47.544;7.586;2022-08-19T13:53:02;28.55;;;25.75;;
34290;SDS011;20553;47.544;7.586;2022-08-19T13:58:07;28.55;;;25.65;;
34290;SDS011;20553;47.544;7.586;2022-08-19T14:03:15;27.02;;;24.23;;
34290;SDS011;20553;47.544;7.586;2022-08-19T14:08:20;27.35;;;24.75;;
34290;SDS011;20553;47.544;7.586;2022-08-19T14:13:25;26.55;;;23.88;;
34290;SDS011;20553;47.544;7.586;2022-08-19T14:18:31;21.60;;;19.60;;
34290;SDS011;20553;47.544;7.586;2022-08-19T14:23:35;22.33;;;20.33;;
34290;SDS011;20553;47.544;7.586;2022-08-19T14:28:40;22.83;;;20.52;;
34290;SDS011;20553;47.544;7.586;2022-08-19T14:33:47;18.88;;;17.27;;
34290;SDS011;20553;47.544;7.586;2022-08-19T14:38:52;19.92;;;18.13;;
34290;SDS011;20553;47.544;7.586;2022-08-19T14:43:57;21.38;;;19.42;;
34290;SDS011;20553;47.544;7.586;2022-08-19T14:49:05;18.88;;;17.17;;
34290;SDS011;20553;47.544;7.586;2022-08-19T14:54:10;17.58;;;16.08;;
34290;SDS011;20553;47.544;7.586;2022-08-19T14:59:15;14.52;;;13.23;;
34290;SDS011;20553;47.544;7.586;2022-08-19T15:04:21;11.83;;;10.83;;
34290;SDS011;20553;47.544;7.586;2022-08-19T15:09:26;11.45;;;10.45;;
34290;SDS011;20553;47.544;7.586;2022-08-19T15:14:31;10.55;;;9.65;;
34290;SDS011;20553;47.544;7.586;2022-08-19T15:19:38;11.90;;;10.80;;
34290;SDS011;20553;47.544;7.586;2022-08-19T15:24:42;11.63;;;10.63;;
34290;SDS011;20553;47.544;7.586;2022-08-19T15:29:49;13.82;;;12.52;;
34290;SDS011;20553;47.544;7.586;2022-08-19T15:35:04;14.07;;;12.87;;
34290;SDS011;20553;47.544;7.586;2022-08-19T15:40:11;13.77;;;12.57;;
34290;SDS011;20553;47.544;7.586;2022-08-19T15:45:16;15.63;;;13.80;;
34290;SDS011;20553;47.544;7.586;2022-08-19T15:50:25;20.23;;;18.33;;
34290;SDS011;20553;47.544;7.586;2022-08-19T15:55:33;25.50;;;23.10;;
34290;SDS011;20553;47.544;7.586;2022-08-19T16:00:45;24.88;;;22.58;;
34290;SDS011;20553;47.544;7.586;2022-08-19T16:06:15;26.45;;;23.88;;
34290;SDS011;20553;47.544;7.586;2022-08-19T16:11:30;26.92;;;24.33;;
34290;SDS011;20553;47.544;7.586;2022-08-19T16:16:41;26.33;;;23.75;;
34290;SDS011;20553;47.544;7.586;2022-08-19T16:21:51;28.30;;;25.60;;
34290;SDS011;20553;47.544;7.586;2022-08-19T16:26:59;27.97;;;25.27;;
34290;SDS011;20553;47.544;7.586;2022-08-19T16:32:06;27.00;;;24.43;;
34290;SDS011;20553;47.544;7.586;2022-08-19T16:37:15;25.30;;;22.90;;
34290;SDS011;20553;47.544;7.586;2022-08-19T16:42:23;23.83;;;21.63;;
34290;SDS011;20553;47.544;7.586;2022-08-19T16:47:28;24.33;;;22.02;;
34290;SDS011;20553;47.544;7.586;2022-08-19T16:52:35;21.83;;;19.80;;
34290;SDS011;20553;47.544;7.586;2022-08-19T16:57:40;21.95;;;19.95;;
34290;SDS011;20553;47.544;7.586;2022-08-19T17:02:45;25.43;;;23.07;;
34290;SDS011;20553;47.544;7.586;2022-08-19T17:07:51;22.97;;;20.97;;
34290;SDS011;20553;47.544;7.586;2022-08-19T17:12:55;24.73;;;22.30;;
34290;SDS011;20553;47.544;7.586;2022-08-19T17:18:00;22.47;;;20.37;;
34290;SDS011;20553;47.544;7.586;2022-08-19T17:23:08;22.63;;;20.58;;
34290;SDS011;20553;47.544;7.586;2022-08-19T17:28:17;20.63;;;18.73;;
34290;SDS011;20553;47.544;7.586;2022-08-19T17:33:25;26.35;;;23.90;;
34290;SDS011;20553;47.544;7.586;2022-08-19T17:38:34;29.63;;;26.50;;
34290;SDS011;20553;47.544;7.586;2022-08-19T17:43:40;31.23;;;28.30;;
34290;SDS011;20553;47.544;7.586;2022-08-19T17:48:46;31.50;;;28.30;;
34290;SDS011;20553;47.544;7.586;2022-08-19T17:53:56;31.73;;;28.63;;
34290;SDS011;20553;47.544;7.586;2022-08-19T17:59:02;31.83;;;28.75;;
34290;SDS011;20553;47.544;7.586;2022-08-19T18:04:10;31.05;;;28.05;;
34290;SDS011;20553;47.544;7.586;2022-08-19T18:09:16;28.77;;;26.07;;
34290;SDS011;20553;47.544;7.586;2022-08-19T18:14:22;26.30;;;23.80;;
34290;SDS011;20553;47.544;7.586;2022-08-19T18:19:35;24.35;;;22.15;;
34290;SDS011;20553;47.544;7.586;2022-08-19T18:24:46;26.70;;;24.20;;
34290;SDS011;20553;47.544;7.586;2022-08-19T18:29:52;23.63;;;21.38;;
34290;SDS011;20553;47.544;7.586;2022-08-19T18:35:02;29.58;;;26.70;;
34290;SDS011;20553;47.544;7.586;2022-08-19T18:40:15;30.00;;;27.00;;
34290;SDS011;20553;47.544;7.586;2022-08-19T18:45:41;35.42;;;31.73;;
34290;SDS011;20553;47.544;7.586;2022-08-19T18:51:05;30.70;;;27.55;;
34290;SDS011;20553;47.544;7.586;2022-08-19T18:56:14;29.80;;;26.60;;
34290;SDS011;20553;47.544;7.586;2022-08-19T19:01:24;35.17;;;31.48;;
34290;SDS011;20553;47.544;7.586;2022-08-19T19:06:35;30.92;;;27.73;;
34290;SDS011;20553;47.544;7.586;2022-08-19T19:11:44;32.37;;;28.83;;
34290;SDS011;20553;47.544;7.586;2022-08-19T19:16:51;39.45;;;33.30;;
34290;SDS011;20553;47.544;7.586;2022-08-19T19:21:56;39.50;;;34.38;;
34290;SDS011;20553;47.544;7.586;2022-08-19T19:27:05;41.75;;;37.20;;
34290;SDS011;20553;47.544;7.586;2022-08-19T19:32:15;38.60;;;34.38;;
34290;SDS011;20553;47.544;7.586;2022-08-19T19:37:24;37.70;;;33.58;;
34290;SDS011;20553;47.544;7.586;2022-08-19T19:42:30;38.50;;;34.30;;
34290;SDS011;20553;47.544;7.586;2022-08-19T19:47:34;49.25;;;39.00;;
34290;SDS011;20553;47.544;7.586;2022-08-19T19:52:41;40.63;;;34.45;;
34290;SDS011;20553;47.544;7.586;2022-08-19T19:57:49;43.08;;;37.03;;
34290;SDS011;20553;47.544;7.586;2022-08-19T20:02:56;56.28;;;43.72;;
34290;SDS011;20553;47.544;7.586;2022-08-19T20:08:00;47.05;;;39.22;;
34290;SDS011;20553;47.544;7.586;2022-08-19T20:13:24;59.10;;;45.50;;
34290;SDS011;20553;47.544;7.586;2022-08-19T20:18:29;38.45;;;34.25;;
34290;SDS011;20553;47.544;7.586;2022-08-19T20:23:33;58.63;;;45.47;;
34290;SDS011;20553;47.544;7.586;2022-08-19T20:28:40;66.07;;;49.97;;
34290;SDS011;20553;47.544;7.586;2022-08-19T20:33:59;54.50;;;43.03;;
34290;SDS011;20553;47.544;7.586;2022-08-19T20:39:06;67.27;;;50.40;;
34290;SDS011;20553;47.544;7.586;2022-08-19T20:44:15;56.50;;;45.17;;
34290;SDS011;20553;47.544;7.586;2022-08-19T20:49:20;61.95;;;46.95;;
34290;SDS011;20553;47.544;7.586;2022-08-19T20:54:28;55.03;;;42.67;;
34290;SDS011;20553;47.544;7.586;2022-08-19T20:59:34;47.00;;;37.78;;
34290;SDS011;20553;47.544;7.586;2022-08-19T21:04:39;34.60;;;27.60;;
34290;SDS011;20553;47.544;7.586;2022-08-19T21:09:43;27.40;;;24.48;;
34290;SDS011;20553;47.544;7.586;2022-08-19T21:14:50;28.47;;;25.30;;
34290;SDS011;20553;47.544;7.586;2022-08-19T21:19:55;29.40;;;26.20;;
34290;SDS011;20553;47.544;7.586;2022-08-19T21:24:59;41.33;;;33.57;;
34290;SDS011;20553;47.544;7.586;2022-08-19T21:30:06;34.57;;;30.77;;
34290;SDS011;20553;47.544;7.586;2022-08-19T21:35:12;27.77;;;24.77;;
34290;SDS011;20553;47.544;7.586;2022-08-19T21:40:17;29.90;;;25.00;;
34290;SDS011;20553;47.544;7.586;2022-08-19T21:45:24;54.47;;;41.08;;
34290;SDS011;20553;47.544;7.586;2022-08-19T21:50:29;44.63;;;34.83;;
34290;SDS011;20553;47.544;7.586;2022-08-19T21:55:34;37.28;;;30.63;;
34290;SDS011;20553;47.544;7.586;2022-08-19T22:00:40;34.73;;;28.17;;
34290;SDS011;20553;47.544;7.586;2022-08-19T22:05:46;34.13;;;29.43;;
34290;SDS011;20553;47.544;7.586;2022-08-19T22:10:52;49.15;;;38.08;;
34290;SDS011;20553;47.544;7.586;2022-08-19T22:15:59;51.77;;;39.10;;
34290;SDS011;20553;47.544;7.586;2022-08-19T22:21:04;52.55;;;39.88;;
34290;SDS011;20553;47.544;7.586;2022-08-19T22:26:14;52.67;;;39.63;;
34290;SDS011;20553;47.544;7.586;2022-08-19T22:31:21;47.95;;;37.35;;
34290;SDS011;20553;47.544;7.586;2022-08-19T22:36:26;50.63;;;37.83;;
34290;SDS011;20553;47.544;7.586;2022-08-19T22:41:33;55.45;;;39.42;;
34290;SDS011;20553;47.544;7.586;2022-08-19T22:46:40;49.50;;;37.85;;
34290;SDS011;20553;47.544;7.586;2022-08-19T22:51:44;45.20;;;34.20;;
34290;SDS011;20553;47.544;7.586;2022-08-19T22:57:06;55.67;;;38.83;;
34290;SDS011;20553;47.544;7.586;2022-08-19T23:02:17;54.63;;;38.20;;
34290;SDS011;20553;47.544;7.586;2022-08-19T23:07:24;53.05;;;38.50;;
34290;SDS011;20553;47.544;7.586;2022-08-19T23:12:30;41.08;;;30.45;;
34290;SDS011;20553;47.544;7.586;2022-08-19T23:17:40;39.10;;;29.48;;
34290;SDS011;20553;47.544;7.586;2022-08-19T23:22:46;45.65;;;35.38;;
34290;SDS011;20553;47.544;7.586;2022-08-19T23:27:53;47.97;;;35.92;;
34290;SDS011;20553;47.544;7.586;2022-08-19T23:33:18;43.35;;;33.60;;
34290;SDS011;20553;47.544;7.586;2022-08-19T23:38:27;34.10;;;27.38;;
34290;SDS011;20553;47.544;7.586;2022-08-19T23:43:34;38.42;;;30.95;;
34290;SDS011;20553;47.544;7.586;2022-08-19T23:48:42;38.28;;;29.73;;
34290;SDS011;20553;47.544;7.586;2022-08-19T23:53:47;37.70;;;27.27;;
34290;SDS011;20553;47.544;7.586;2022-08-19T23:58:52;42.58;;;30.65;;
